METAR AND TAF INFORMATION
METAR FOR PADK
ADDS - METARS form results

(1820 UTC 23 March 2019)
Data provider http://aviationweather.gov/metar/data/
 
METAR text: PADK 231756Z AUTO 18016G22KT 5SM -RA BR BKN018 OVC024 05/03 A2939 RMK AO2 WSHFT 1711 SLP953 P0011 60015 T00500033 10050 20000 56049
Conditions at: PADK (ADAK NAS , AK, US) observed 1756 UTC 23 March 2019
Temperature: 5.0°C (41°F)
Dewpoint: 3.3°C (38°F) [RH = 89%]
Pressure (altimeter): 29.39 inches Hg (995.3 mb)
[Sea-level pressure:  995.3 mb]
Winds: from the S (180 degrees) at 18 MPH (16 knots; 8.2 m/s)
gusting to 25 MPH (22 knots; 11.3 m/s)
Visibility: 5 miles ( 8 km)
Ceiling: 1800 feet AGL
Clouds: broken clouds at 1800 feet AGL
overcast cloud deck at 2400 feet AGL
Weather: -RA BR  (light rain, mist)

METAR text: PADK 231725Z AUTO 19017G23KT 8SM -RA OVC018 05/03 A2941 RMK AO2 WSHFT 1711 P0002
Conditions at: PADK (ADAK NAS , AK, US) observed 1725 UTC 23 March 2019
Temperature: 5.0°C (41°F)
Dewpoint: 3.0°C (37°F) [RH = 87%]
Pressure (altimeter): 29.41 inches Hg (996.0 mb)
Winds: from the S (190 degrees) at 20 MPH (17 knots; 8.7 m/s)
gusting to 26 MPH (23 knots; 11.8 m/s)
Visibility: 8 miles (13 km)
Ceiling: 1800 feet AGL
Clouds: overcast cloud deck at 1800 feet AGL
Weather: -RA  (light rain)

 AIRPORT MAP

 RUNWAY INFORMATION
Runway 05 Runway length 7790 ft Runway width 200 ft
Runway elevation 17 ft Runway displaced threshold 0 ft Runway heading 61
Runway 23 Runway length 7790 ft Runway width 200 ft
Runway elevation 15 ft Runway displaced threshold 0 ft Runway heading 241
Runway 18 Runway length 7605 ft Runway width 200 ft
Runway elevation 6 ft Runway displaced threshold 0 ft Runway heading 185
Runway 36 Runway length 7605 ft Runway width 200 ft
Runway elevation 4 ft Runway displaced threshold 0 ft Runway heading 5

 AIRPORT FREQUENCIES

 AIRPORT NEAR NAVIGATION AIDS
Type NDB-DME Name Mount Moffett Frequency 530 KHZ
Type TACAN Name Adak Frequency 113000 KHZ



Powered by Virtual Airlines Manager [v2.6.2]